createdAt,value
2022-08-12T00:00:30.244Z,44.28
2022-08-12T00:02:02.905Z,44.79
2022-08-12T00:02:31.244Z,45.25
2022-08-12T00:03:30.277Z,44.44
2022-08-12T00:04:30.201Z,44.41
2022-08-12T00:05:30.223Z,43.73
2022-08-12T00:06:30.180Z,44.26
2022-08-12T00:07:31.194Z,46.07
2022-08-12T00:08:35.844Z,45.65
2022-08-12T00:09:31.169Z,43.78
2022-08-12T00:10:30.164Z,44.69
2022-08-12T00:11:30.154Z,44.52
2022-08-12T00:12:30.192Z,46.18
2022-08-12T00:13:30.128Z,47.27
2022-08-12T00:14:30.140Z,47.34
2022-08-12T00:15:30.109Z,44.43
2022-08-12T00:16:30.120Z,44.61
2022-08-12T00:17:30.099Z,44.03
2022-08-12T00:18:30.121Z,46.26
2022-08-12T00:19:30.069Z,43.99
2022-08-12T00:20:30.067Z,42.73
2022-08-12T00:21:30.108Z,42.34
2022-08-12T00:22:30.117Z,42.58
2022-08-12T00:23:30.035Z,44.34
2022-08-12T00:24:30.018Z,43.83
2022-08-12T00:25:51.250Z,44.67
2022-08-12T00:26:31.016Z,46.44
2022-08-12T00:27:44.040Z,44.98
2022-08-12T00:28:31.047Z,43.48
2022-08-12T00:29:29.992Z,43.75
2022-08-12T00:30:29.972Z,43.08
2022-08-12T00:31:29.973Z,43.07
2022-08-12T00:32:54.287Z,42.77
2022-08-12T00:33:36.445Z,44.34
2022-08-12T00:34:30.931Z,42.89
2022-08-12T00:35:36.420Z,44.42
2022-08-12T00:36:34.850Z,44.13
2022-08-12T00:37:30.918Z,42.00
2022-08-12T00:38:29.882Z,42.85
2022-08-12T00:39:30.917Z,43.21
2022-08-12T00:40:29.912Z,43.87
2022-08-12T00:41:29.885Z,45.86
2022-08-12T00:42:29.875Z,43.75
2022-08-12T00:43:29.832Z,44.20
2022-08-12T00:44:29.867Z,44.82
2022-08-12T00:45:29.837Z,41.83
2022-08-12T00:46:29.812Z,42.23
2022-08-12T00:47:29.835Z,41.84
2022-08-12T00:48:29.837Z,41.83
2022-08-12T00:49:29.799Z,40.93
2022-08-12T00:50:29.817Z,41.29
2022-08-12T00:51:29.779Z,40.87
2022-08-12T00:52:29.782Z,40.23
2022-08-12T00:53:29.790Z,40.30
2022-08-12T00:54:29.743Z,43.03
2022-08-12T00:55:29.731Z,43.53
2022-08-12T00:56:29.722Z,43.70
2022-08-12T00:57:29.730Z,43.81
2022-08-12T00:58:29.717Z,43.41
2022-08-12T00:59:29.687Z,44.50
2022-08-12T01:00:29.704Z,43.84
2022-08-12T01:01:29.694Z,43.56
2022-08-12T01:02:30.723Z,43.39
2022-08-12T01:03:30.657Z,43.19
2022-08-12T01:04:29.633Z,43.25
2022-08-12T01:05:29.630Z,43.90
2022-08-12T01:06:29.619Z,43.44
2022-08-12T01:07:29.627Z,43.29
2022-08-12T01:08:29.619Z,43.54
2022-08-12T01:09:29.589Z,44.41
2022-08-12T01:10:32.650Z,44.35
2022-08-12T01:11:29.581Z,45.28
2022-08-12T01:12:29.590Z,44.34
2022-08-12T01:13:29.583Z,45.56
2022-08-12T01:14:29.571Z,44.65
2022-08-12T01:15:29.554Z,42.49
2022-08-12T01:16:29.538Z,45.00
2022-08-12T01:17:29.559Z,46.47
2022-08-12T01:18:29.513Z,42.82
2022-08-12T01:19:29.503Z,43.84
2022-08-12T01:20:29.513Z,42.32
2022-08-12T01:21:29.485Z,40.90
2022-08-12T01:22:29.464Z,42.81
2022-08-12T01:23:29.462Z,41.92
2022-08-12T01:24:31.532Z,40.91
2022-08-12T01:25:29.452Z,43.02
2022-08-12T01:26:29.454Z,41.09
2022-08-12T01:27:29.405Z,40.55
2022-08-12T01:28:29.425Z,42.11
2022-08-12T01:29:32.584Z,41.33
2022-08-12T01:30:29.434Z,41.15
2022-08-12T01:31:29.472Z,41.52
2022-08-12T01:32:29.365Z,42.56
2022-08-12T01:33:29.373Z,45.05
2022-08-12T01:34:36.843Z,43.49
2022-08-12T01:35:30.349Z,41.95
2022-08-12T01:36:29.334Z,41.76
2022-08-12T01:37:29.284Z,47.59
2022-08-12T01:38:29.574Z,44.74
2022-08-12T01:39:29.381Z,44.98
2022-08-12T01:40:33.564Z,46.30
2022-08-12T01:41:30.295Z,47.21
2022-08-12T01:42:29.280Z,46.84
2022-08-12T01:43:29.285Z,47.83
2022-08-12T01:44:29.249Z,45.47
2022-08-12T01:45:29.264Z,46.40
2022-08-12T01:46:30.244Z,46.25
2022-08-12T01:47:29.239Z,44.64
2022-08-12T01:48:29.228Z,44.77
2022-08-12T01:49:29.222Z,42.68
2022-08-12T01:50:29.189Z,43.84
2022-08-12T01:52:20.996Z,43.88
2022-08-12T01:52:30.176Z,43.51
2022-08-12T01:53:29.187Z,42.10
2022-08-12T01:54:30.148Z,46.36
2022-08-12T01:55:29.128Z,45.07
2022-08-12T01:56:29.149Z,45.51
2022-08-12T01:57:59.822Z,45.86
2022-08-12T01:58:30.150Z,46.57
2022-08-12T01:59:29.102Z,46.65
2022-08-12T02:00:36.022Z,45.77
2022-08-12T02:01:30.145Z,45.12
2022-08-12T02:02:29.076Z,45.46
2022-08-12T02:03:29.076Z,47.00
2022-08-12T02:04:29.075Z,46.20
2022-08-12T02:05:29.045Z,47.52
2022-08-12T02:06:29.047Z,44.97
2022-08-12T02:07:29.024Z,45.71
2022-08-12T02:08:29.048Z,48.20
2022-08-12T02:09:28.995Z,48.70
2022-08-12T02:10:49.302Z,47.40
2022-08-12T02:11:29.980Z,48.89
2022-08-12T02:12:31.378Z,45.16
2022-08-12T02:13:42.086Z,45.47
2022-08-12T02:14:29.953Z,46.21
2022-08-12T02:15:28.935Z,44.94
2022-08-12T02:16:28.948Z,46.51
2022-08-12T02:17:55.180Z,47.31
2022-08-12T02:18:29.933Z,45.81
2022-08-12T02:19:28.921Z,46.25
2022-08-12T02:20:35.232Z,46.11
2022-08-12T02:21:29.869Z,46.86
2022-08-12T02:22:28.910Z,46.03
2022-08-12T02:23:28.893Z,45.26
2022-08-12T02:24:28.870Z,44.20
2022-08-12T02:25:28.838Z,46.78
2022-08-12T02:26:28.850Z,47.43
2022-08-12T02:27:28.824Z,44.15
2022-08-12T02:28:28.817Z,45.54
2022-08-12T02:29:28.825Z,47.26
2022-08-12T02:30:41.698Z,45.26
2022-08-12T02:31:29.800Z,45.92
2022-08-12T02:32:28.778Z,47.86
2022-08-12T02:33:28.774Z,46.66
2022-08-12T02:34:28.787Z,45.53
2022-08-12T02:35:28.772Z,46.52
2022-08-12T02:36:28.772Z,46.50
2022-08-12T02:37:28.749Z,45.30
2022-08-12T02:38:28.747Z,46.17
2022-08-12T02:39:28.740Z,46.72
2022-08-12T02:40:29.718Z,48.01
2022-08-12T02:41:28.693Z,48.32
2022-08-12T02:42:28.701Z,47.25
2022-08-12T02:43:28.681Z,46.18
2022-08-12T02:44:28.688Z,46.21
2022-08-12T02:45:28.643Z,47.09
2022-08-12T02:46:28.636Z,48.04
2022-08-12T02:47:59.230Z,45.43
2022-08-12T02:48:29.660Z,45.47
2022-08-12T02:49:28.628Z,47.88
2022-08-12T02:50:28.604Z,44.83
2022-08-12T02:51:28.582Z,44.08
2022-08-12T02:52:28.587Z,45.12
2022-08-12T02:53:28.613Z,44.47
2022-08-12T02:54:28.566Z,45.80
2022-08-12T02:55:34.305Z,46.14
2022-08-12T02:56:29.585Z,45.71
2022-08-12T02:57:28.522Z,47.13
2022-08-12T02:58:32.890Z,46.81
2022-08-12T02:59:29.512Z,46.35
2022-08-12T03:00:28.521Z,47.01
2022-08-12T03:01:28.617Z,47.82
2022-08-12T03:02:28.472Z,47.76
2022-08-12T03:03:28.520Z,48.97
2022-08-12T03:04:28.497Z,45.42
2022-08-12T03:05:28.457Z,45.31
2022-08-12T03:06:28.471Z,48.42
2022-08-12T03:07:39.691Z,45.55
2022-08-12T03:08:32.409Z,46.64
2022-08-12T03:09:29.961Z,46.80
2022-08-12T03:10:37.694Z,49.37
2022-08-12T03:11:29.392Z,46.60
2022-08-12T03:12:33.694Z,47.44
2022-08-12T03:13:29.379Z,49.81
2022-08-12T03:14:28.373Z,48.65
2022-08-12T03:15:28.347Z,47.15
2022-08-12T03:16:28.338Z,45.42
2022-08-12T03:17:28.349Z,45.69
2022-08-12T03:18:28.935Z,46.08
2022-08-12T03:19:28.327Z,50.12
2022-08-12T03:20:28.628Z,51.06
2022-08-12T03:21:52.817Z,54.01
2022-08-12T03:22:29.259Z,50.50
2022-08-12T03:23:30.301Z,47.57
2022-08-12T03:24:28.272Z,48.46
2022-08-12T03:25:28.259Z,48.19
2022-08-12T03:26:28.246Z,50.96
2022-08-12T03:27:28.202Z,51.37
2022-08-12T03:28:28.208Z,51.49
2022-08-12T03:29:28.243Z,51.25
2022-08-12T03:30:28.190Z,53.97
2022-08-12T03:31:28.185Z,52.65
2022-08-12T03:32:36.221Z,52.81
2022-08-12T03:33:29.154Z,50.09
2022-08-12T03:34:29.169Z,49.71
2022-08-12T03:35:40.066Z,50.11
2022-08-12T03:36:29.143Z,50.24
2022-08-12T03:37:28.151Z,49.83
2022-08-12T03:38:28.161Z,48.26
2022-08-12T03:39:36.475Z,51.09
2022-08-12T03:40:29.133Z,46.00
2022-08-12T03:41:28.109Z,46.05
2022-08-12T03:42:28.286Z,50.33
2022-08-12T03:43:28.085Z,47.46
2022-08-12T03:44:28.075Z,48.26
2022-08-12T03:45:28.047Z,48.67
2022-08-12T03:46:28.056Z,47.75
2022-08-12T03:47:28.035Z,46.16
2022-08-12T03:48:28.017Z,49.94
2022-08-12T03:49:28.039Z,47.68
2022-08-12T03:50:27.999Z,50.84
2022-08-12T03:51:28.006Z,47.34
2022-08-12T03:52:27.977Z,46.51
2022-08-12T03:53:27.970Z,47.88
2022-08-12T03:54:27.975Z,47.38
2022-08-12T03:55:27.956Z,49.79
2022-08-12T03:56:27.942Z,46.92
2022-08-12T03:57:27.929Z,50.22
2022-08-12T03:58:27.928Z,47.13
2022-08-12T03:59:27.938Z,49.45
2022-08-12T04:00:27.883Z,50.28
2022-08-12T04:01:27.966Z,52.26
2022-08-12T04:02:27.909Z,50.69
2022-08-12T04:03:27.882Z,50.98
2022-08-12T04:04:27.896Z,50.30
2022-08-12T04:05:54.618Z,55.01
2022-08-12T04:06:35.287Z,55.24
2022-08-12T04:07:28.846Z,52.57
2022-08-12T04:08:27.813Z,52.67
2022-08-12T04:09:27.812Z,48.98
2022-08-12T04:10:27.807Z,52.69
2022-08-12T04:11:32.041Z,52.82
2022-08-12T04:12:32.442Z,58.34
2022-08-12T04:13:31.877Z,54.19
2022-08-12T04:14:27.763Z,53.97
2022-08-12T04:15:33.425Z,57.41
2022-08-12T04:16:32.995Z,57.29
2022-08-12T04:17:31.763Z,53.21
2022-08-12T04:18:30.169Z,56.91
2022-08-12T04:19:30.188Z,57.93
2022-08-12T04:20:30.433Z,53.80
2022-08-12T04:21:32.078Z,52.84
2022-08-12T04:22:27.687Z,57.59
2022-08-12T04:23:27.689Z,55.92
2022-08-12T04:24:27.699Z,54.68
2022-08-12T04:25:27.671Z,53.13
2022-08-12T04:26:27.675Z,55.61
2022-08-12T04:27:27.640Z,51.59
2022-08-12T04:28:27.625Z,51.87
2022-08-12T04:30:29.263Z,50.80
2022-08-12T04:30:32.063Z,53.27
2022-08-12T04:31:28.589Z,53.34
2022-08-12T04:32:27.597Z,52.32
2022-08-12T04:33:27.571Z,54.84
2022-08-12T04:34:27.587Z,53.14
2022-08-12T04:35:27.574Z,50.60
2022-08-12T04:36:27.541Z,51.71
2022-08-12T04:37:27.547Z,53.97
2022-08-12T04:38:27.556Z,53.50
2022-08-12T04:39:27.553Z,51.50
2022-08-12T04:40:28.438Z,51.72
2022-08-12T04:41:27.498Z,51.17
2022-08-12T04:42:27.477Z,53.31
2022-08-12T04:44:00.725Z,51.97
2022-08-12T04:44:28.478Z,54.00
2022-08-12T04:45:27.450Z,54.30
2022-08-12T04:46:33.548Z,50.53
2022-08-12T04:47:29.583Z,50.00
2022-08-12T04:48:27.524Z,50.07
2022-08-12T04:49:28.836Z,58.00
2022-08-12T04:50:34.913Z,58.37
2022-08-12T04:51:28.359Z,52.76
2022-08-12T04:52:30.655Z,52.12
2022-08-12T04:53:28.353Z,52.54
2022-08-12T04:54:27.379Z,55.24
2022-08-12T04:55:27.361Z,50.41
2022-08-12T04:56:27.368Z,51.14
2022-08-12T04:57:28.308Z,56.45
2022-08-12T04:58:29.342Z,57.02
2022-08-12T04:59:27.314Z,55.42
2022-08-12T05:00:27.288Z,54.53
2022-08-12T05:01:28.297Z,50.92
2022-08-12T05:02:27.301Z,49.23
2022-08-12T05:03:27.259Z,51.60
2022-08-12T05:04:27.276Z,52.50
2022-08-12T05:05:27.272Z,50.47
2022-08-12T05:06:27.262Z,50.51
2022-08-12T05:07:27.241Z,51.22
2022-08-12T05:08:27.209Z,50.05
2022-08-12T05:09:27.213Z,52.80
2022-08-12T05:10:33.859Z,47.43
2022-08-12T05:11:28.180Z,49.79
2022-08-12T05:12:27.207Z,51.76
2022-08-12T05:13:27.163Z,48.46
2022-08-12T05:14:27.175Z,49.49
2022-08-12T05:15:29.135Z,49.53
2022-08-12T05:16:30.940Z,48.38
2022-08-12T05:17:28.486Z,52.65
2022-08-12T05:18:29.264Z,51.53
2022-08-12T05:19:27.102Z,54.14
2022-08-12T05:20:27.096Z,50.78
2022-08-12T05:21:27.087Z,52.39
2022-08-12T05:22:27.082Z,56.54
2022-08-12T05:23:27.054Z,51.94
2022-08-12T05:24:27.051Z,49.80
2022-08-12T05:25:27.039Z,49.11
2022-08-12T05:26:27.035Z,49.72
2022-08-12T05:27:27.044Z,47.94
2022-08-12T05:28:27.353Z,48.64
2022-08-12T05:30:07.906Z,50.32
2022-08-12T05:30:27.996Z,47.54
2022-08-12T05:31:40.363Z,48.08
2022-08-12T05:32:27.972Z,51.86
2022-08-12T05:33:26.927Z,51.34
2022-08-12T05:34:26.959Z,50.61
2022-08-12T05:35:26.935Z,52.32
2022-08-12T05:36:26.928Z,49.59
2022-08-12T05:37:26.923Z,52.27
2022-08-12T05:38:26.900Z,50.23
2022-08-12T05:39:26.961Z,58.53
2022-08-12T05:40:26.863Z,51.45
2022-08-12T05:41:26.848Z,52.53
2022-08-12T05:42:31.088Z,56.07
2022-08-12T05:43:27.841Z,53.50
2022-08-12T05:44:26.830Z,49.43
2022-08-12T05:45:26.857Z,58.36
2022-08-12T05:46:26.869Z,52.47
2022-08-12T05:47:44.851Z,51.07
2022-08-12T05:48:27.802Z,51.41
2022-08-12T05:49:26.785Z,49.12
2022-08-12T05:50:26.793Z,50.05
2022-08-12T05:51:40.673Z,53.39
2022-08-12T05:52:27.913Z,49.07
2022-08-12T05:53:26.778Z,51.35
2022-08-12T05:54:41.115Z,45.40
2022-08-12T05:55:31.330Z,46.61
2022-08-12T05:56:27.710Z,50.64
2022-08-12T05:57:26.700Z,46.10
2022-08-12T05:58:26.709Z,52.63
2022-08-12T05:59:26.701Z,54.02
2022-08-12T06:00:26.680Z,44.98
2022-08-12T06:02:11.981Z,50.00
2022-08-12T06:02:28.213Z,49.66
2022-08-12T06:03:26.631Z,51.46
2022-08-12T06:04:26.616Z,50.73
2022-08-12T06:05:26.606Z,50.90
2022-08-12T06:06:27.817Z,48.25
2022-08-12T06:08:00.311Z,52.02
2022-08-12T06:08:27.567Z,49.79
2022-08-12T06:09:26.553Z,56.42
2022-08-12T06:10:32.401Z,51.97
2022-08-12T06:11:27.515Z,48.64
2022-08-12T06:12:27.517Z,48.29
2022-08-12T06:13:52.552Z,50.77
2022-08-12T06:14:27.492Z,51.21
2022-08-12T06:15:26.500Z,52.47
2022-08-12T06:16:26.549Z,48.49
2022-08-12T06:17:26.483Z,52.57
2022-08-12T06:18:29.788Z,53.92
2022-08-12T06:20:22.846Z,49.67
2022-08-12T06:20:30.212Z,47.53
2022-08-12T06:21:27.465Z,50.97
2022-08-12T06:22:36.765Z,51.25
2022-08-12T06:23:26.431Z,48.29
2022-08-12T06:24:26.445Z,52.81
2022-08-12T06:25:26.515Z,53.92
2022-08-12T06:26:26.407Z,57.18
2022-08-12T06:28:10.446Z,56.85
2022-08-12T06:28:27.382Z,57.33
2022-08-12T06:30:09.343Z,57.04
2022-08-12T06:30:36.838Z,56.75
2022-08-12T06:31:28.453Z,61.43
2022-08-12T06:32:27.701Z,56.97
2022-08-12T06:33:55.346Z,58.59
2022-08-12T06:35:26.181Z,58.91
2022-08-12T06:35:48.209Z,55.89
2022-08-12T06:36:29.882Z,55.57
2022-08-12T06:37:26.316Z,55.47
2022-08-12T06:38:26.302Z,55.79
2022-08-12T06:44:53.288Z,56.06
2022-08-12T06:45:52.296Z,54.73
2022-08-12T06:46:54.184Z,55.18
2022-08-12T06:48:04.257Z,55.29
2022-08-12T06:49:05.403Z,55.05
2022-08-12T06:50:02.813Z,55.59
2022-08-12T06:51:56.833Z,60.55
2022-08-12T06:52:52.204Z,59.01
2022-08-12T06:53:52.189Z,51.80
2022-08-12T06:54:52.198Z,45.58
2022-08-12T06:56:16.279Z,42.75
2022-08-12T06:59:27.860Z,47.06
2022-08-12T07:00:32.450Z,46.94
2022-08-12T07:01:31.620Z,47.44
2022-08-12T07:02:29.394Z,44.96
2022-08-12T07:03:37.289Z,47.58
2022-08-12T07:04:37.479Z,45.65
2022-08-12T07:05:35.217Z,43.42
2022-08-12T07:06:27.691Z,46.29
2022-08-12T07:07:27.665Z,43.69
2022-08-12T07:08:27.651Z,44.53
2022-08-12T07:10:00.008Z,45.12
2022-08-12T07:10:28.632Z,44.20
2022-08-12T07:11:28.213Z,45.73
2022-08-12T07:12:28.071Z,43.44
2022-08-12T07:13:27.691Z,45.37
2022-08-12T07:14:27.724Z,47.46
2022-08-12T07:15:35.050Z,42.55
2022-08-12T07:16:36.668Z,48.04
2022-08-12T07:17:34.461Z,46.16
2022-08-12T07:18:37.150Z,46.58
2022-08-12T07:19:40.638Z,45.30
2022-08-12T07:21:59.697Z,45.99
2022-08-12T07:22:38.363Z,38.41
2022-08-12T07:24:39.932Z,50.28
2022-08-12T07:25:41.197Z,41.75
2022-08-12T07:26:36.864Z,39.24
2022-08-12T07:28:28.704Z,51.36
2022-08-12T07:30:00.075Z,42.46
2022-08-12T07:30:29.432Z,45.84
2022-08-12T07:31:27.669Z,44.61
2022-08-12T07:32:35.878Z,49.65
2022-08-12T07:33:35.956Z,60.94
2022-08-12T07:34:36.697Z,51.91
2022-08-12T07:35:41.567Z,47.60
2022-08-12T07:36:28.433Z,50.81
2022-08-12T07:37:27.450Z,50.12
2022-08-12T07:38:33.356Z,50.59
2022-08-12T07:39:35.880Z,56.49
2022-08-12T07:40:33.826Z,52.06
2022-08-12T07:41:30.167Z,44.37
2022-08-12T07:42:28.183Z,43.23
2022-08-12T07:43:36.410Z,45.97
2022-08-12T07:44:28.318Z,43.67
2022-08-12T07:45:35.013Z,44.66
2022-08-12T07:46:27.287Z,42.55
2022-08-12T07:47:27.266Z,41.84
2022-08-12T07:48:27.273Z,43.94
2022-08-12T07:49:27.263Z,43.56
2022-08-12T07:50:27.237Z,42.89
2022-08-12T07:51:27.247Z,43.73
2022-08-12T07:52:27.343Z,35.93
2022-08-12T07:53:27.234Z,44.39
2022-08-12T07:54:27.197Z,43.20
2022-08-12T07:55:27.183Z,40.41
2022-08-12T07:56:27.195Z,42.81
2022-08-12T07:57:27.167Z,41.64
2022-08-12T07:58:27.179Z,43.52
2022-08-12T07:59:27.141Z,42.32
2022-08-12T08:00:27.129Z,41.69
2022-08-12T08:01:27.202Z,47.11
2022-08-12T08:02:27.349Z,42.68
2022-08-12T08:03:27.109Z,37.32
2022-08-12T08:04:27.085Z,40.18
2022-08-12T08:05:27.094Z,40.80
2022-08-12T08:06:27.081Z,44.49
2022-08-12T08:07:27.082Z,45.34
2022-08-12T08:08:27.057Z,41.82
2022-08-12T08:09:27.041Z,40.41
2022-08-12T08:10:27.043Z,44.87
2022-08-12T08:11:27.018Z,51.86
2022-08-12T08:12:27.175Z,52.33
2022-08-12T08:13:27.119Z,51.84
2022-08-12T08:14:27.017Z,45.71
2022-08-12T08:15:51.158Z,43.38
2022-08-12T08:16:32.988Z,44.14
2022-08-12T08:17:28.051Z,47.99
2022-08-12T08:18:27.842Z,41.73
2022-08-12T08:19:29.000Z,37.53
2022-08-12T08:20:29.205Z,42.40
2022-08-12T08:21:27.177Z,39.00
2022-08-12T08:22:40.780Z,36.20
2022-08-12T08:23:37.832Z,36.82
2022-08-12T08:24:40.384Z,42.30
2022-08-12T08:25:35.704Z,40.11
2022-08-12T08:26:27.876Z,42.67
2022-08-12T08:27:29.200Z,46.88
2022-08-12T08:28:26.865Z,35.85
2022-08-12T08:29:27.890Z,38.07
2022-08-12T08:30:26.873Z,45.91
2022-08-12T08:31:26.830Z,44.74
2022-08-12T08:32:26.843Z,43.11
2022-08-12T08:34:08.935Z,43.23
2022-08-12T10:15:15.260Z,40.82
2022-08-12T10:16:18.686Z,45.42
2022-08-12T10:17:13.452Z,52.14
2022-08-12T10:18:12.629Z,45.24
2022-08-12T10:19:17.351Z,47.27
2022-08-12T10:20:13.416Z,46.41
2022-08-12T10:21:12.399Z,44.76
2022-08-12T10:22:16.969Z,45.99
2022-08-12T10:23:13.377Z,48.68
2022-08-12T10:24:12.384Z,46.57
2022-08-12T10:25:17.373Z,46.27
2022-08-12T10:26:35.053Z,42.92
2022-08-12T10:27:15.782Z,44.13
2022-08-12T10:28:22.129Z,46.65
2022-08-12T10:30:01.337Z,44.01
2022-08-12T10:30:41.428Z,51.60
2022-08-12T10:31:16.390Z,47.61
2022-08-12T10:32:20.894Z,43.91
2022-08-12T10:33:18.165Z,52.54
2022-08-12T10:34:26.125Z,46.22
2022-08-12T10:35:14.691Z,46.71
2022-08-12T10:36:12.245Z,47.33
2022-08-12T10:38:05.748Z,47.24
2022-08-12T10:38:39.192Z,49.78
2022-08-12T10:39:59.982Z,44.82
2022-08-12T10:40:19.239Z,46.31
2022-08-12T10:41:19.061Z,45.70
2022-08-12T10:42:13.233Z,46.36
2022-08-12T10:43:12.210Z,41.22
2022-08-12T10:44:12.398Z,40.25
2022-08-12T10:45:18.066Z,46.18
2022-08-12T10:46:13.319Z,47.13
2022-08-12T10:48:01.622Z,46.35
2022-08-12T10:48:21.469Z,45.68
2022-08-12T10:50:06.950Z,43.32
2022-08-12T10:50:28.600Z,40.08
2022-08-12T10:52:34.393Z,40.99
2022-08-12T10:53:19.437Z,37.61
2022-08-12T10:54:13.166Z,37.36
2022-08-12T10:55:13.237Z,41.53
2022-08-12T10:56:12.049Z,41.80
2022-08-12T10:57:18.505Z,46.58
2022-08-12T10:58:30.974Z,44.13
2022-08-12T10:59:15.595Z,44.86
2022-08-12T11:00:34.375Z,45.71
2022-08-12T11:01:49.096Z,43.24
2022-08-12T11:04:23.558Z,48.59
2022-08-12T11:04:25.740Z,41.07
2022-08-12T11:04:31.477Z,51.55
2022-08-12T11:07:06.815Z,40.61
2022-08-12T11:07:08.363Z,45.53
2022-08-12T11:08:33.907Z,44.97
2022-08-12T11:08:37.619Z,49.60
2022-08-12T11:09:13.035Z,46.94
2022-08-12T11:10:11.950Z,42.96
2022-08-12T11:11:13.689Z,42.22
2022-08-12T11:12:55.609Z,46.22
2022-08-12T11:13:12.872Z,40.62
2022-08-12T11:14:47.966Z,46.83
2022-08-12T11:15:33.220Z,42.82
2022-08-12T11:16:22.130Z,44.38
2022-08-12T11:17:43.028Z,42.79
2022-08-12T11:18:18.311Z,43.94
2022-08-12T11:19:11.833Z,50.11
2022-08-12T11:20:20.740Z,47.77
2022-08-12T11:21:15.791Z,39.53
2022-08-12T11:22:12.953Z,44.49
2022-08-12T11:23:26.031Z,41.98
2022-08-12T11:24:30.648Z,48.00
2022-08-12T11:25:16.628Z,43.15
2022-08-12T11:26:12.902Z,43.81
2022-08-12T11:27:26.270Z,42.49
2022-08-12T11:28:20.606Z,42.11
2022-08-12T11:29:22.349Z,37.38
2022-08-12T11:30:31.081Z,42.55
2022-08-12T11:32:02.451Z,44.72
2022-08-12T11:32:22.454Z,47.63
2022-08-12T11:35:20.110Z,41.63
2022-08-12T11:35:23.065Z,0.00
2022-08-12T11:36:22.713Z,42.06
2022-08-12T11:37:26.407Z,36.91
2022-08-12T11:38:22.455Z,44.51
2022-08-12T11:40:23.556Z,45.10
2022-08-12T11:41:31.363Z,44.87
2022-08-12T11:43:18.987Z,38.99
2022-08-12T11:43:26.212Z,38.62
2022-08-12T11:44:35.278Z,43.25
2022-08-12T11:47:19.723Z,44.75
2022-08-12T11:47:21.203Z,0.00
2022-08-12T11:48:26.915Z,43.55
2022-08-12T11:49:30.764Z,44.14
2022-08-12T11:50:23.863Z,48.05
2022-08-12T11:51:22.195Z,43.92
2022-08-12T11:52:54.918Z,43.95
2022-08-12T11:53:58.282Z,46.22
2022-08-12T11:54:22.184Z,39.57
2022-08-12T11:55:23.173Z,38.92
2022-08-12T11:56:21.330Z,43.05
2022-08-12T11:58:09.538Z,42.32
2022-08-12T12:00:16.838Z,46.47
2022-08-12T12:02:00.955Z,47.03
2022-08-12T12:02:04.803Z,47.61
2022-08-12T12:02:25.983Z,44.48
2022-08-12T12:03:23.138Z,43.77
2022-08-12T12:04:28.991Z,44.98
2022-08-12T12:05:22.128Z,44.13
2022-08-12T12:06:22.537Z,41.71
2022-08-12T12:07:21.253Z,42.45
2022-08-12T12:08:37.393Z,48.92
2022-08-12T12:09:24.678Z,42.45
2022-08-12T12:10:29.228Z,43.50
2022-08-12T12:11:23.128Z,42.91
2022-08-12T12:12:21.441Z,40.89
2022-08-12T12:13:23.287Z,36.52
2022-08-12T12:14:37.801Z,41.76
2022-08-12T12:15:24.666Z,42.45
2022-08-12T12:16:21.013Z,47.98
2022-08-12T12:17:21.000Z,39.83
2022-08-12T12:18:22.478Z,39.76
2022-08-12T12:19:21.977Z,48.47
2022-08-12T12:20:20.963Z,45.05
2022-08-12T12:21:47.589Z,49.86
2022-08-12T12:22:26.783Z,44.46
2022-08-12T12:23:29.157Z,37.76
2022-08-12T12:24:22.529Z,46.34
2022-08-12T12:25:20.923Z,44.32
2022-08-12T12:26:35.259Z,42.86
2022-08-12T12:27:59.305Z,40.81
2022-08-12T12:28:38.143Z,45.24
2022-08-12T12:30:20.000Z,43.88
2022-08-12T12:30:37.471Z,47.10
2022-08-12T12:32:11.622Z,44.86
2022-08-12T12:32:29.342Z,47.55
2022-08-12T12:33:21.892Z,46.87
2022-08-12T12:34:30.169Z,47.89
2022-08-12T12:36:06.473Z,42.59
2022-08-12T12:36:29.770Z,44.95
2022-08-12T12:38:03.308Z,42.92
2022-08-12T12:38:25.170Z,43.15
2022-08-12T12:39:21.873Z,46.09
2022-08-12T12:40:21.230Z,42.72
2022-08-12T12:41:20.759Z,45.94
2022-08-12T12:42:42.889Z,44.25
2022-08-12T12:43:28.399Z,46.04
2022-08-12T12:44:26.002Z,46.53
2022-08-12T12:45:26.041Z,47.99
2022-08-12T12:46:20.772Z,45.21
2022-08-12T12:47:47.693Z,47.78
2022-08-12T12:48:33.258Z,41.17
2022-08-12T14:57:23.458Z,45.54
2022-08-12T15:09:19.122Z,44.58
2022-08-12T15:10:06.010Z,44.49
2022-08-12T15:11:21.695Z,44.91
2022-08-12T15:20:37.540Z,51.50
2022-08-12T15:21:16.232Z,44.72
2022-08-12T15:22:38.382Z,43.15
2022-08-12T15:23:21.619Z,47.88
2022-08-12T15:24:15.456Z,42.03
2022-08-12T15:25:28.678Z,46.85
2022-08-12T15:26:20.647Z,48.17
2022-08-12T15:27:15.208Z,46.93
2022-08-12T15:28:21.559Z,47.10
2022-08-12T15:29:16.948Z,41.59
2022-08-12T15:30:15.118Z,47.77
2022-08-12T15:31:27.533Z,47.17
2022-08-12T15:32:16.294Z,50.96
2022-08-12T15:33:20.911Z,43.51
2022-08-12T15:34:16.059Z,45.22
2022-08-12T15:35:15.048Z,46.90
2022-08-12T15:36:19.509Z,45.91
2022-08-12T15:37:22.832Z,41.34
2022-08-12T15:38:19.469Z,45.58
2022-08-12T15:39:16.414Z,40.28
2022-08-12T15:40:15.059Z,44.69
2022-08-12T15:41:55.460Z,45.49
2022-08-12T15:42:21.835Z,43.93
2022-08-12T15:44:16.019Z,49.07
2022-08-12T15:44:38.353Z,44.12
2022-08-12T15:45:32.171Z,51.19
2022-08-12T15:46:28.049Z,48.53
2022-08-12T15:47:16.359Z,40.68
2022-08-12T15:48:20.279Z,46.13
2022-08-12T15:49:54.984Z,45.41
2022-08-12T15:50:26.729Z,47.33
2022-08-12T15:51:15.970Z,49.94
2022-08-12T15:52:19.152Z,46.48
2022-08-12T15:53:15.876Z,41.42
2022-08-12T15:54:34.275Z,43.62
2022-08-12T15:55:16.811Z,41.24
2022-08-12T15:56:14.844Z,43.71
2022-08-12T15:57:17.129Z,44.88
2022-08-12T15:58:16.742Z,40.95
2022-08-12T15:59:14.817Z,41.46
2022-08-12T16:00:22.461Z,44.80
2022-08-12T16:01:15.878Z,47.64
2022-08-12T16:02:14.801Z,48.27
2022-08-12T16:03:25.618Z,45.61
2022-08-12T16:04:17.104Z,46.92
2022-08-12T16:06:10.478Z,46.55
2022-08-12T16:06:31.179Z,39.11
2022-08-12T16:07:15.747Z,45.06
2022-08-12T16:08:21.187Z,42.35
2022-08-12T16:09:15.713Z,40.78
2022-08-12T16:10:15.742Z,50.53
2022-08-12T16:11:18.803Z,47.49
2022-08-12T16:12:14.873Z,45.76
2022-08-12T16:13:14.680Z,44.39
2022-08-12T16:14:14.662Z,46.09
2022-08-12T16:15:14.655Z,42.85
2022-08-12T16:16:23.631Z,42.23
2022-08-12T16:17:15.852Z,47.74
2022-08-12T16:18:19.650Z,43.44
2022-08-12T16:19:19.049Z,44.50
2022-08-12T16:20:15.609Z,42.17
2022-08-12T16:21:52.391Z,43.50
2022-08-12T16:22:15.610Z,46.59
2022-08-12T16:23:26.218Z,41.62
2022-08-12T16:24:15.567Z,43.75
2022-08-12T16:25:22.531Z,44.55
2022-08-12T16:26:20.459Z,40.44
2022-08-12T16:27:15.554Z,49.60
2022-08-12T16:28:14.535Z,40.41
2022-08-12T16:29:16.234Z,40.71
2022-08-12T16:30:14.514Z,40.39
2022-08-12T16:31:22.612Z,39.69
2022-08-12T16:32:15.506Z,42.99
2022-08-12T16:33:14.487Z,44.17
2022-08-12T16:34:26.035Z,45.65
2022-08-12T16:35:16.174Z,43.91
2022-08-12T16:36:18.775Z,42.95
2022-08-12T16:37:14.575Z,48.14
2022-08-12T16:38:27.775Z,40.16
2022-08-12T16:39:15.617Z,38.24
2022-08-12T16:40:15.539Z,40.88
2022-08-12T16:41:15.547Z,44.84
2022-08-12T16:42:15.570Z,42.51
2022-08-12T16:43:15.519Z,45.54
2022-08-12T16:44:19.496Z,42.69
2022-08-12T16:45:15.525Z,43.39
2022-08-12T16:46:31.165Z,45.41
2022-08-12T16:47:16.503Z,42.28
2022-08-12T16:48:33.703Z,47.84
2022-08-12T16:49:16.453Z,45.33
2022-08-12T16:50:15.445Z,45.46
2022-08-12T16:51:15.455Z,44.38
2022-08-12T16:52:16.405Z,44.61
2022-08-12T16:53:15.437Z,42.94
2022-08-12T16:54:16.479Z,39.22
2022-08-12T16:55:15.412Z,44.57
2022-08-12T16:56:15.808Z,44.69
2022-08-12T16:57:15.407Z,42.16
2022-08-12T16:58:28.454Z,44.17
2022-08-12T16:59:19.792Z,46.47
2022-08-12T17:00:15.383Z,38.99
2022-08-12T17:01:15.454Z,43.12
2022-08-12T17:02:31.963Z,47.44
2022-08-12T17:03:18.434Z,43.69
2022-08-12T17:04:16.330Z,45.02
2022-08-12T17:05:16.147Z,45.15
2022-08-12T17:06:19.656Z,42.44
2022-08-12T17:07:16.320Z,41.91
2022-08-12T17:08:15.541Z,39.02
2022-08-12T17:09:17.693Z,40.46
2022-08-12T17:10:18.353Z,44.94
2022-08-12T17:11:18.107Z,45.63
2022-08-12T17:12:15.253Z,43.63
2022-08-12T17:13:15.266Z,41.49
2022-08-12T17:14:15.243Z,46.23
2022-08-12T17:15:50.537Z,42.48
2022-08-12T17:16:17.973Z,40.62
2022-08-12T17:17:26.058Z,44.01